Eurasian Highway — 7JKY — position and weather

sailwx.info

Track history (hours):
 
Tides and Currents Weather Stations Pressure Air Temp Water Temp Dewpoint Dewpoint Depression Visibility Wind Speed Wind Dir Waves Ship Positions

Eurasian Highway

Last reported at 2014-Oct-21 16:05 UTC. Time now 2014-Oct-23 13:08 UTC.
Position S 38°33' E 144°49'.

Length 199 m; draft 8.5 m.

Type: Cargo ship. MMSI: 432839000.

Date/timePositionNaut miles runAvg speedWind from/ knotsBaromVisibWave heightAir tempDewpointWater temp
2014-Oct-21 16:05S 38°33' E 144°49'1016.7
2014-Oct-21 15:31S 38°38' E 144°60'1616.9
2014-Oct-21 14:34S 38°47' E 145°17'1717.1
2014-Oct-21 13:33S 38°56' E 145°36'1717.2
2014-Oct-21 12:33S 39°04' E 145°55'1716.7
2014-Oct-21 11:34S 39°12' E 146°15'1716.9
2014-Oct-21 10:33S 39°08' E 146°36'1717.4
2014-Oct-21 09:34S 39°02' E 146°57'1817.7
2014-Oct-21 08:33S 38°57' E 147°19'1817.8
2014-Oct-21 07:34S 38°51' E 147°41'1917.7
2014-Oct-21 06:30S 38°45' E 148°04'1616.8
2014-Oct-21 05:33S 38°39' E 148°22'1616.4
2014-Oct-21 04:34S 38°31' E 148°40'1716.8
2014-Oct-21 03:33S 38°22' E 148°59'2217.3
2014-Oct-21 02:17S 38°10' E 149°22'3017.5
2014-Oct-21 00:33S 37°53' E 149°54'1717.0
2014-Oct-20 23:33S 37°39' E 150°07'1717.0
2014-Oct-20 22:33S 37°24' E 150°16'1717.1
2014-Oct-20 21:33S 37°09' E 150°25'165 4.3
2014-Oct-19 07:32S 34°26' E 150°59'95 6.8
2014-Oct-18 17:33S 33°12' E 152°11'1717.4
2014-Oct-18 16:33S 32°58' E 152°24'1717.3
2014-Oct-18 15:33S 32°44' E 152°36'2416.5
2014-Oct-18 14:04S 32°22' E 152°49'27016.2
2014-Oct-17 21:24S 27°57' E 153°47'1416.3
2014-Oct-17 20:33S 27°43' E 153°46'1616.1
2014-Oct-17 19:33S 27°27' E 153°45'1616.2
2014-Oct-17 18:33S 27°11' E 153°44'1614.6
2014-Oct-17 17:29S 26°56' E 153°38'1516.2
2014-Oct-17 16:34S 26°49' E 153°24'1313.0
2014-Oct-17 15:33S 26°43' E 153°11'1313.4
2014-Oct-17 14:33S 26°56' E 153°12'1615.6
2014-Oct-17 13:33S 27°10' E 153°21'1413.6
2014-Oct-17 12:34S 27°21' E 153°11'3 2.5
2014-Oct-17 11:33S 27°23' E 153°10'0 0.0
2014-Oct-17 10:33S 27°23' E 153°10'0 0.0
2014-Oct-17 09:33S 27°23' E 153°10'0 0.0
2014-Oct-17 08:33S 27°23' E 153°10'0 0.0
2014-Oct-17 07:33S 27°23' E 153°10'0 0.0
2014-Oct-17 06:33S 27°23' E 153°10'0 0.0
2014-Oct-17 05:33S 27°23' E 153°10'0 0.0
2014-Oct-17 04:33S 27°23' E 153°10'0 0.0
2014-Oct-17 03:33S 27°23' E 153°10'0 0.0
2014-Oct-17 02:33S 27°23' E 153°10'0 0.1
2014-Oct-17 01:33S 27°23' E 153°10'1010.3
2014-Oct-17 00:33S 27°15' E 153°18'1312.8
2014-Oct-16 23:33S 27°03' E 153°16'1514.6
2014-Oct-16 22:33S 26°49' E 153°10'1010.4
2014-Oct-16 21:33S 26°39' E 153°14'1616.0
2014-Oct-16 20:33S 26°23' E 153°17'1716.6
2014-Oct-16 19:33S 26°07' E 153°19'1616.5
2014-Oct-16 18:33S 25°51' E 153°22'  
Track history (hours):
 
Tides and Currents Weather Stations Pressure Air Temp Water Temp Dewpoint Dewpoint Depression Visibility Wind Speed Wind Dir Waves Ship Positions

Eurasian Highway

Last reported at 2014-Oct-21 16:05 UTC. Time now 2014-Oct-23 13:08 UTC.
Position S 38°33' E 144°49'.

Length 199 m; draft 8.5 m.

Type: Cargo ship. MMSI: 432839000.

Date/timePositionNaut miles runAvg speedWind from/ knotsBaromVisibWave heightAir tempDewpointWater temp
2014-Oct-21 16:05S 38°33' E 144°49'1016.7
2014-Oct-21 15:31S 38°38' E 144°60'1616.9
2014-Oct-21 14:34S 38°47' E 145°17'1717.1
2014-Oct-21 13:33S 38°56' E 145°36'1717.2
2014-Oct-21 12:33S 39°04' E 145°55'1716.7
2014-Oct-21 11:34S 39°12' E 146°15'1716.9
2014-Oct-21 10:33S 39°08' E 146°36'1717.4
2014-Oct-21 09:34S 39°02' E 146°57'1817.7
2014-Oct-21 08:33S 38°57' E 147°19'1817.8
2014-Oct-21 07:34S 38°51' E 147°41'1917.7
2014-Oct-21 06:30S 38°45' E 148°04'1616.8
2014-Oct-21 05:33S 38°39' E 148°22'1616.4
2014-Oct-21 04:34S 38°31' E 148°40'1716.8
2014-Oct-21 03:33S 38°22' E 148°59'2217.3
2014-Oct-21 02:17S 38°10' E 149°22'3017.5
2014-Oct-21 00:33S 37°53' E 149°54'1717.0
2014-Oct-20 23:33S 37°39' E 150°07'1717.0
2014-Oct-20 22:33S 37°24' E 150°16'1717.1
2014-Oct-20 21:33S 37°09' E 150°25'165 4.3
2014-Oct-19 07:32S 34°26' E 150°59'95 6.8
2014-Oct-18 17:33S 33°12' E 152°11'1717.4
2014-Oct-18 16:33S 32°58' E 152°24'1717.3
2014-Oct-18 15:33S 32°44' E 152°36'2416.5
2014-Oct-18 14:04S 32°22' E 152°49'27016.2
2014-Oct-17 21:24S 27°57' E 153°47'1416.3
2014-Oct-17 20:33S 27°43' E 153°46'1616.1
2014-Oct-17 19:33S 27°27' E 153°45'1616.2
2014-Oct-17 18:33S 27°11' E 153°44'1614.6
2014-Oct-17 17:29S 26°56' E 153°38'1516.2
2014-Oct-17 16:34S 26°49' E 153°24'1313.0
2014-Oct-17 15:33S 26°43' E 153°11'1313.4
2014-Oct-17 14:33S 26°56' E 153°12'1615.6
2014-Oct-17 13:33S 27°10' E 153°21'1413.6
2014-Oct-17 12:34S 27°21' E 153°11'3 2.5
2014-Oct-17 11:33S 27°23' E 153°10'0 0.0
2014-Oct-17 10:33S 27°23' E 153°10'0 0.0
2014-Oct-17 09:33S 27°23' E 153°10'0 0.0
2014-Oct-17 08:33S 27°23' E 153°10'0 0.0
2014-Oct-17 07:33S 27°23' E 153°10'0 0.0
2014-Oct-17 06:33S 27°23' E 153°10'0 0.0
2014-Oct-17 05:33S 27°23' E 153°10'0 0.0
2014-Oct-17 04:33S 27°23' E 153°10'0 0.0
2014-Oct-17 03:33S 27°23' E 153°10'0 0.0
2014-Oct-17 02:33S 27°23' E 153°10'0 0.1
2014-Oct-17 01:33S 27°23' E 153°10'1010.3
2014-Oct-17 00:33S 27°15' E 153°18'1312.8
2014-Oct-16 23:33S 27°03' E 153°16'1514.6
2014-Oct-16 22:33S 26°49' E 153°10'1010.4
2014-Oct-16 21:33S 26°39' E 153°14'1616.0
2014-Oct-16 20:33S 26°23' E 153°17'1716.6
2014-Oct-16 19:33S 26°07' E 153°19'1616.5
2014-Oct-16 18:33S 25°51' E 153°22'  

Dump ship's entire track history